Time;durP1;ratioP1;P1;durP2;ratioP2;P2;SDS_P1;SDS_P2;PMS_P1;PMS_P2;Temp;Humidity;BMP_temperature;BMP_pressure;BME280_temperature;BME280_humidity;BME280_pressure;Samples;Min_cycle;Max_cycle;Signal;HPM_P1;HPM_P2
2023/03/15 00:00:24;;;;;;;1.93;0.63;;;5.10;99.90;;;;;;4919479;29;20244;-72
2023/03/15 00:02:50;;;;;;;2.13;0.90;;;5.10;99.90;;;;;;4919789;29;20205;-72
2023/03/15 00:05:17;;;;;;;4.53;0.97;;;5.30;99.90;;;;;;4919929;29;20206;-74
2023/03/15 00:07:44;;;;;;;7.37;1.80;;;5.60;99.90;;;;;;4919952;29;20209;-72
2023/03/15 00:10:11;;;;;;;9.17;2.63;;;5.70;99.90;;;;;;4919514;29;20320;-71
2023/03/15 00:12:41;;;;;;;8.97;2.20;;;5.70;99.90;;;;;;4919542;29;20680;-73
2023/03/15 00:15:08;;;;;;;6.53;1.90;;;5.70;99.90;;;;;;4919732;29;20217;-72
2023/03/15 00:17:35;;;;;;;4.47;2.27;;;5.60;99.90;;;;;;4919691;29;20206;-72
2023/03/15 00:20:03;;;;;;;3.97;2.30;;;5.50;99.90;;;;;;4919372;29;20566;-72
2023/03/15 00:22:29;;;;;;;11.77;2.00;;;5.30;99.90;;;;;;4919384;29;20210;-72
2023/03/15 00:24:56;;;;;;;5.53;2.30;;;5.30;99.90;;;;;;4919128;29;20238;-72
2023/03/15 00:27:23;;;;;;;3.30;2.03;;;5.50;99.90;;;;;;4919658;29;20220;-72
2023/03/15 00:29:51;;;;;;;3.43;1.60;;;5.30;99.90;;;;;;4919023;29;20736;-71
2023/03/15 00:32:18;;;;;;;5.10;2.00;;;5.20;99.90;;;;;;4919564;29;20217;-71
2023/03/15 00:34:47;;;;;;;4.60;1.67;;;5.20;99.90;;;;;;4919394;29;20213;-72
2023/03/15 00:37:15;;;;;;;6.67;1.73;;;5.10;99.90;;;;;;4919513;29;20206;-72
2023/03/15 00:39:44;;;;;;;3.33;1.60;;;5.10;99.90;;;;;;4919234;29;20233;-72
2023/03/15 00:42:14;;;;;;;6.77;1.50;;;5.10;99.90;;;;;;4919339;29;20217;-72
2023/03/15 00:44:41;;;;;;;4.23;1.53;;;5.20;99.90;;;;;;4919142;29;20245;-73
2023/03/15 00:47:10;;;;;;;4.67;1.60;;;5.30;99.90;;;;;;4919179;29;20565;-72
2023/03/15 00:49:37;;;;;;;7.00;1.47;;;5.30;99.90;;;;;;4919039;29;20236;-71
2023/03/15 00:52:04;;;;;;;1.57;0.90;;;5.20;99.90;;;;;;4918917;29;20232;-72
2023/03/15 00:54:32;;;;;;;6.70;1.37;;;5.10;99.90;;;;;;4918988;29;20206;-72
2023/03/15 00:56:59;;;;;;;4.07;1.00;;;5.10;99.90;;;;;;4918287;29;20213;-72
2023/03/15 00:59:28;;;;;;;5.87;1.10;;;5.10;99.90;;;;;;4918693;29;20229;-71
2023/03/15 01:01:55;;;;;;;3.47;0.70;;;5.00;99.90;;;;;;4919187;29;20213;-71
2023/03/15 01:04:24;;;;;;;2.03;1.10;;;4.90;99.90;;;;;;4918579;29;20237;-72
2023/03/15 01:06:50;;;;;;;2.73;1.00;;;4.90;99.90;;;;;;4918725;29;20679;-73
2023/03/15 01:09:17;;;;;;;5.97;0.90;;;4.90;99.90;;;;;;4918737;29;20680;-71
2023/03/15 01:11:44;;;;;;;2.90;0.73;;;4.90;99.90;;;;;;4918873;29;20218;-72
2023/03/15 01:14:11;;;;;;;4.07;0.77;;;4.80;99.90;;;;;;4918484;29;20687;-75
2023/03/15 01:16:38;;;;;;;4.37;0.70;;;4.70;99.90;;;;;;4918660;29;20206;-72
2023/03/15 01:19:04;;;;;;;1.63;0.50;;;4.50;99.90;;;;;;4918559;29;20206;-72
2023/03/15 01:21:33;;;;;;;5.87;0.50;;;4.50;99.90;;;;;;4918512;29;20229;-72
2023/03/15 01:23:59;;;;;;;0.73;0.50;;;4.40;99.90;;;;;;4918290;29;20696;-71
2023/03/15 01:26:26;;;;;;;1.87;0.23;;;4.30;99.90;;;;;;4918186;29;20678;-72
2023/03/15 01:28:53;;;;;;;4.33;0.30;;;4.10;99.90;;;;;;4917913;29;20213;-71
2023/03/15 01:31:22;;;;;;;1.07;0.40;;;4.10;99.90;;;;;;4918446;29;20233;-72
2023/03/15 01:33:49;;;;;;;0.60;0.23;;;4.00;99.90;;;;;;4918454;29;20210;-71
2023/03/15 01:36:16;;;;;;;1.07;0.30;;;3.90;99.90;;;;;;4918280;29;20674;-71
2023/03/15 01:38:44;;;;;;;1.60;0.40;;;3.90;99.90;;;;;;4918206;29;20209;-72
2023/03/15 01:41:11;;;;;;;1.27;0.30;;;3.90;99.90;;;;;;4918053;29;20240;-79
2023/03/15 01:43:46;;;;;;;0.80;0.40;;;3.90;99.90;;;;;;4918040;29;20209;-71
2023/03/15 01:46:23;;;;;;;1.13;0.30;;;3.80;99.90;;;;;;4917883;29;20216;-72
2023/03/15 01:48:55;;;;;;;0.30;0.20;;;3.80;99.90;;;;;;4918196;29;20209;-72
2023/03/15 01:51:26;;;;;;;2.57;0.53;;;3.80;99.90;;;;;;4917859;29;20291;-71
2023/03/15 01:53:59;;;;;;;0.77;0.60;;;4.00;99.90;;;;;;4918112;29;20217;-72
2023/03/15 01:56:27;;;;;;;2.67;1.00;;;4.00;99.90;;;;;;4917762;29;20210;-72
2023/03/15 01:58:58;;;;;;;0.80;0.60;;;4.10;99.90;;;;;;4918014;29;20210;-72
2023/03/15 02:01:25;;;;;;;0.97;0.50;;;4.10;99.90;;;;;;4917755;29;20230;-75
2023/03/15 02:03:57;;;;;;;1.50;0.70;;;4.10;99.90;;;;;;4917549;29;20233;-72
2023/03/15 02:06:25;;;;;;;0.50;0.40;;;4.20;99.90;;;;;;4917832;29;20213;-72
2023/03/15 02:08:57;;;;;;;2.70;0.60;;;4.20;99.90;;;;;;4917537;29;20232;-76
2023/03/15 02:11:26;;;;;;;0.67;0.50;;;4.20;99.90;;;;;;4917575;29;20244;-72
2023/03/15 02:13:54;;;;;;;1.60;0.50;;;4.30;99.90;;;;;;4917312;29;20691;-72
2023/03/15 02:16:23;;;;;;;1.17;0.50;;;4.30;99.90;;;;;;4917602;29;20300;-72
2023/03/15 02:18:50;;;;;;;1.67;0.67;;;4.40;99.90;;;;;;4917502;29;20209;-73
2023/03/15 02:21:32;;;;;;;6.00;0.70;;;4.40;99.90;;;;;;4917514;29;20230;-72
2023/03/15 02:24:08;;;;;;;3.13;1.03;;;4.40;99.90;;;;;;4917302;29;20233;-72
2023/03/15 02:26:41;;;;;;;2.43;0.77;;;4.40;99.90;;;;;;4917409;29;20215;-71
2023/03/15 02:29:10;;;;;;;1.23;0.80;;;4.40;99.90;;;;;;4917215;29;20755;-71
2023/03/15 02:31:37;;;;;;;3.33;1.03;;;4.40;99.90;;;;;;4917199;29;20214;-73
2023/03/15 02:34:06;;;;;;;2.17;1.10;;;4.40;99.90;;;;;;4917170;29;20222;-75
2023/03/15 02:36:35;;;;;;;2.97;1.30;;;4.50;99.90;;;;;;4917301;29;20660;-72
2023/03/15 02:39:02;;;;;;;2.50;1.00;;;4.50;99.90;;;;;;4917464;29;20206;-73
2023/03/15 02:41:32;;;;;;;1.00;0.80;;;4.60;99.90;;;;;;4917121;29;20230;-74
2023/03/15 02:44:05;;;;;;;1.23;0.90;;;4.70;99.90;;;;;;4917021;29;20219;-72
2023/03/15 02:46:33;;;;;;;1.40;1.30;;;4.70;99.90;;;;;;4916928;29;20232;-72
2023/03/15 02:49:01;;;;;;;1.27;0.73;;;4.80;99.90;;;;;;4917005;29;20212;-73
2023/03/15 02:51:29;;;;;;;1.30;0.80;;;4.70;99.90;;;;;;4917028;29;20274;-72
2023/03/15 02:53:56;;;;;;;3.97;1.20;;;4.70;99.90;;;;;;4917143;29;20206;-72
2023/03/15 02:56:23;;;;;;;2.10;1.23;;;4.70;99.90;;;;;;4917250;29;20301;-71
2023/03/15 02:58:50;;;;;;;3.10;1.30;;;4.70;99.90;;;;;;4916861;29;20228;-72
2023/03/15 03:01:18;;;;;;;3.57;1.77;;;4.70;99.90;;;;;;4917193;29;20229;-73
2023/03/15 03:03:47;;;;;;;6.13;1.60;;;4.60;99.90;;;;;;4916990;29;20221;-72
2023/03/15 03:06:15;;;;;;;2.27;1.23;;;4.60;99.90;;;;;;4917246;29;20213;-71
2023/03/15 03:08:45;;;;;;;1.40;1.10;;;4.60;99.90;;;;;;4916980;29;20231;-72
2023/03/15 03:11:13;;;;;;;1.67;1.00;;;4.60;99.90;;;;;;4917432;29;20225;-72
2023/03/15 03:13:40;;;;;;;1.13;1.03;;;4.70;99.90;;;;;;4916532;29;20553;-71
2023/03/15 03:16:07;;;;;;;5.17;1.27;;;4.70;99.90;;;;;;4916997;29;20209;-71
2023/03/15 03:18:35;;;;;;;1.60;1.17;;;4.70;99.90;;;;;;4916991;29;20213;-71
2023/03/15 03:21:05;;;;;;;2.63;1.40;;;4.60;99.90;;;;;;4916332;29;20229;-72
2023/03/15 03:23:33;;;;;;;3.20;1.30;;;4.60;99.90;;;;;;4916953;29;20209;-72
2023/03/15 03:26:01;;;;;;;5.07;1.30;;;4.60;99.90;;;;;;4916629;29;20237;-72
2023/03/15 03:28:30;;;;;;;1.83;1.20;;;4.70;99.90;;;;;;4916545;29;20666;-72
2023/03/15 03:30:58;;;;;;;4.17;1.60;;;4.70;99.90;;;;;;4916390;29;20236;-72
2023/03/15 03:33:25;;;;;;;2.80;1.50;;;4.70;99.90;;;;;;4916585;29;20218;-72
2023/03/15 03:35:52;;;;;;;3.43;1.50;;;4.70;99.90;;;;;;4916706;29;20225;-77
2023/03/15 03:38:21;;;;;;;2.37;1.37;;;4.70;99.90;;;;;;4916520;29;20205;-72
2023/03/15 03:40:47;;;;;;;2.60;1.50;;;4.90;99.90;;;;;;4916271;29;20237;-71
2023/03/15 03:43:14;;;;;;;2.50;1.30;;;4.80;99.90;;;;;;4916426;29;20537;-72
2023/03/15 03:45:41;;;;;;;2.80;1.50;;;4.80;99.90;;;;;;4916396;29;20241;-72
2023/03/15 03:48:08;;;;;;;6.43;1.63;;;4.80;99.90;;;;;;4916339;29;20570;-72
2023/03/15 03:50:35;;;;;;;3.47;1.50;;;4.70;99.90;;;;;;4916666;29;20589;-72
2023/03/15 03:53:01;;;;;;;3.33;1.37;;;4.70;99.90;;;;;;4916596;29;20214;-73
2023/03/15 03:55:32;;;;;;;3.73;1.27;;;4.70;99.90;;;;;;4916336;29;20209;-72
2023/03/15 03:57:59;;;;;;;3.70;1.73;;;4.80;99.90;;;;;;4916209;29;20696;-71
2023/03/15 04:00:26;;;;;;;3.57;1.20;;;4.70;99.90;;;;;;4916304;29;20255;-72
2023/03/15 04:02:53;;;;;;;3.77;1.43;;;4.80;99.90;;;;;;4916199;29;20230;-73
2023/03/15 04:05:20;;;;;;;2.00;1.60;;;4.80;99.90;;;;;;4916264;29;20237;-72
2023/03/15 04:07:47;;;;;;;6.03;2.43;;;4.70;99.90;;;;;;4916500;29;20221;-71
2023/03/15 04:10:14;;;;;;;1.83;1.13;;;4.60;99.90;;;;;;4916315;29;20704;-72
2023/03/15 04:12:43;;;;;;;3.10;1.47;;;4.70;99.90;;;;;;4916390;29;20221;-72
2023/03/15 04:15:11;;;;;;;3.73;1.40;;;4.70;99.90;;;;;;4916280;29;20212;-72
2023/03/15 04:17:38;;;;;;;6.10;1.43;;;4.80;99.90;;;;;;4916214;29;20210;-72
2023/03/15 04:20:07;;;;;;;2.77;1.40;;;4.70;99.90;;;;;;4916388;29;20233;-72
2023/03/15 04:22:34;;;;;;;6.50;1.50;;;4.70;99.90;;;;;;4916010;29;20216;-72
2023/03/15 04:25:01;;;;;;;2.30;1.17;;;4.70;99.90;;;;;;4915374;29;20241;-72
2023/03/15 04:27:28;;;;;;;4.13;1.43;;;4.70;99.90;;;;;;4915522;29;20230;-73
2023/03/15 04:29:56;;;;;;;2.33;1.50;;;4.70;99.90;;;;;;4915156;29;20230;-72
2023/03/15 04:32:23;;;;;;;2.10;1.47;;;4.80;99.90;;;;;;4916928;29;20210;-72
2023/03/15 04:34:50;;;;;;;1.87;1.40;;;4.80;99.90;;;;;;4918507;29;20242;-72
2023/03/15 04:37:17;;;;;;;5.50;1.50;;;4.80;99.90;;;;;;4918521;29;20673;-71
2023/03/15 04:39:44;;;;;;;7.10;1.67;;;4.80;99.90;;;;;;4918391;29;20277;-72
2023/03/15 04:42:11;;;;;;;2.23;1.30;;;4.90;99.90;;;;;;4918491;29;20212;-72
2023/03/15 04:44:38;;;;;;;3.90;1.60;;;5.00;99.90;;;;;;4919134;29;20217;-72
2023/03/15 04:47:06;;;;;;;3.47;1.47;;;5.00;99.90;;;;;;4919156;29;20221;-73
2023/03/15 04:49:33;;;;;;;4.13;1.67;;;5.00;99.90;;;;;;4919457;29;20230;-71
2023/03/15 04:52:00;;;;;;;2.37;1.70;;;5.00;99.90;;;;;;4919095;29;20209;-72
2023/03/15 04:54:27;;;;;;;2.07;1.60;;;5.00;99.90;;;;;;4919040;29;20214;-71
2023/03/15 04:56:54;;;;;;;3.37;1.80;;;4.90;99.90;;;;;;4919262;29;20569;-71
2023/03/15 04:59:21;;;;;;;6.97;2.03;;;4.80;99.90;;;;;;4918831;29;20216;-71
2023/03/15 05:01:47;;;;;;;2.50;1.57;;;4.70;99.90;;;;;;4919241;29;20257;-72
2023/03/15 05:04:16;;;;;;;4.40;2.07;;;4.60;99.90;;;;;;4918761;29;20206;-72
2023/03/15 05:06:42;;;;;;;2.00;1.60;;;4.60;99.90;;;;;;4918990;29;20248;-72
2023/03/15 05:09:16;;;;;;;2.53;1.97;;;4.60;99.90;;;;;;4918799;29;20555;-72
2023/03/15 05:11:43;;;;;;;4.70;1.70;;;4.50;99.90;;;;;;4918721;29;20304;-71
2023/03/15 05:14:10;;;;;;;8.60;2.37;;;4.40;99.90;;;;;;4918462;29;20217;-72
2023/03/15 05:16:37;;;;;;;3.87;1.93;;;4.40;99.90;;;;;;4918473;29;20221;-72
2023/03/15 05:19:03;;;;;;;4.57;2.30;;;4.40;99.90;;;;;;4918403;29;20205;-76
2023/03/15 05:21:32;;;;;;;3.33;2.00;;;4.40;99.90;;;;;;4918623;29;20244;-72
2023/03/15 05:23:58;;;;;;;3.90;2.37;;;4.40;99.90;;;;;;4918730;29;20209;-71
2023/03/15 05:26:25;;;;;;;3.67;2.07;;;4.40;99.90;;;;;;4918572;29;20241;-71
2023/03/15 05:28:52;;;;;;;5.57;2.20;;;4.40;99.90;;;;;;4918663;29;20213;-72
2023/03/15 05:31:19;;;;;;;5.33;2.10;;;4.30;99.90;;;;;;4918255;29;20233;-72
2023/03/15 05:33:46;;;;;;;5.40;2.60;;;4.30;99.90;;;;;;4918656;29;20213;-71
2023/03/15 05:36:14;;;;;;;5.23;2.07;;;4.30;99.90;;;;;;4918555;29;20213;-72
2023/03/15 05:38:42;;;;;;;4.03;2.37;;;4.20;99.90;;;;;;4918345;29;20209;-72
2023/03/15 05:41:09;;;;;;;4.23;2.10;;;4.20;99.90;;;;;;4918035;29;20226;-71
2023/03/15 05:43:36;;;;;;;8.27;1.90;;;4.10;99.90;;;;;;4917437;29;20212;-73
2023/03/15 05:46:02;;;;;;;4.80;2.20;;;4.00;99.90;;;;;;4917742;29;20237;-71
2023/03/15 05:48:31;;;;;;;3.60;1.50;;;4.00;99.90;;;;;;4918088;29;20213;-72
2023/03/15 05:50:58;;;;;;;3.93;1.97;;;3.90;99.90;;;;;;4917966;29;20325;-72
2023/03/15 05:53:24;;;;;;;7.93;2.03;;;3.80;99.90;;;;;;4917767;29;20228;-72
2023/03/15 05:55:53;;;;;;;3.37;1.73;;;3.80;99.90;;;;;;4917821;29;20673;-72
2023/03/15 05:58:19;;;;;;;2.93;1.87;;;3.70;99.90;;;;;;4917807;29;20206;-72
2023/03/15 06:00:48;;;;;;;5.67;2.27;;;3.70;99.90;;;;;;4917438;29;20712;-72
2023/03/15 06:03:14;;;;;;;4.83;2.03;;;3.70;99.90;;;;;;4917796;29;20210;-72
2023/03/15 06:05:41;;;;;;;7.60;2.37;;;3.70;99.90;;;;;;4917265;29;20238;-73
2023/03/15 06:08:09;;;;;;;4.07;2.03;;;3.60;99.90;;;;;;4917008;29;20482;-76
2023/03/15 06:10:36;;;;;;;4.73;2.03;;;3.60;99.90;;;;;;4916886;29;20586;-72
2023/03/15 06:13:04;;;;;;;3.47;1.63;;;3.60;99.90;;;;;;4916828;29;20592;-72
2023/03/15 06:15:31;;;;;;;5.07;1.93;;;3.60;99.90;;;;;;4917449;29;20220;-72
2023/03/15 06:17:58;;;;;;;5.00;2.33;;;3.70;99.90;;;;;;4917794;29;20214;-73
2023/03/15 06:20:25;;;;;;;5.37;2.57;;;3.70;99.90;;;;;;4917253;29;20229;-72
2023/03/15 06:22:52;;;;;;;3.33;2.13;;;3.80;99.90;;;;;;4917301;29;20206;-72
2023/03/15 06:25:19;;;;;;;6.93;2.33;;;4.00;99.90;;;;;;4917051;29;20772;-73
2023/03/15 06:27:46;;;;;;;5.63;3.10;;;4.40;99.90;;;;;;4917125;29;20218;-72
2023/03/15 06:30:15;;;;;;;9.57;2.80;;;4.70;99.90;;;;;;4916841;29;20748;-72
2023/03/15 06:32:42;;;;;;;5.13;2.90;;;5.10;99.90;;;;;;4917469;29;20216;-72
2023/03/15 06:35:09;;;;;;;4.83;2.70;;;5.40;99.90;;;;;;4917262;29;20305;-73
2023/03/15 06:37:36;;;;;;;11.47;2.93;;;5.50;99.90;;;;;;4917563;29;20209;-71
2023/03/15 06:40:06;;;;;;;6.47;2.70;;;5.60;99.90;;;;;;4916834;29;20233;-72
2023/03/15 06:42:32;;;;;;;5.80;2.80;;;5.60;99.90;;;;;;4917102;29;20216;-72
2023/03/15 06:45:00;;;;;;;5.30;2.60;;;5.50;99.90;;;;;;4917106;29;20219;-73
2023/03/15 06:47:28;;;;;;;5.50;2.33;;;5.50;99.90;;;;;;4917122;29;20257;-72
2023/03/15 06:49:55;;;;;;;5.63;2.10;;;5.80;99.90;;;;;;4916851;29;20236;-72
2023/03/15 06:52:21;;;;;;;5.40;2.90;;;6.20;99.90;;;;;;4917067;29;20210;-72
2023/03/15 06:54:48;;;;;;;6.57;2.73;;;6.70;99.90;;;;;;4916264;29;20213;-72
2023/03/15 06:57:15;;;;;;;4.40;2.77;;;7.20;99.90;;;;;;4917044;29;20218;-72
2023/03/15 06:59:42;;;;;;;6.17;2.63;;;7.40;99.90;;;;;;4916680;29;20240;-73
2023/03/15 07:02:14;;;;;;;3.87;2.10;;;7.70;99.90;;;;;;4916909;29;20220;-75
2023/03/15 07:04:43;;;;;;;3.17;2.33;;;7.90;99.90;;;;;;4916753;29;20233;-73
2023/03/15 07:07:10;;;;;;;4.13;1.80;;;7.60;99.90;;;;;;4916841;29;20316;-77
2023/03/15 07:09:37;;;;;;;7.33;2.00;;;7.20;99.90;;;;;;4916869;29;20233;-72
2023/03/15 07:12:04;;;;;;;4.60;2.17;;;7.30;99.90;;;;;;4916397;29;20209;-72
2023/03/15 07:14:31;;;;;;;2.83;2.17;;;7.90;99.90;;;;;;4916420;29;20214;-75
2023/03/15 07:16:58;;;;;;;3.27;1.90;;;8.50;99.90;;;;;;4916212;29;20210;-73
2023/03/15 07:19:24;;;;;;;3.53;1.70;;;9.20;99.90;;;;;;4916385;29;20212;-73
2023/03/15 07:21:53;;;;;;;3.90;2.03;;;10.00;99.90;;;;;;4916663;29;20661;-73
2023/03/15 07:24:19;;;;;;;3.83;1.87;;;10.10;99.90;;;;;;4916835;29;20213;-71
2023/03/15 07:26:46;;;;;;;3.87;2.00;;;10.50;99.90;;;;;;4916489;29;20233;-71
2023/03/15 07:29:13;;;;;;;2.67;1.80;;;10.90;99.90;;;;;;4916538;29;20218;-70
2023/03/15 07:31:40;;;;;;;2.23;1.67;;;11.20;99.90;;;;;;4916929;29;20641;-75
2023/03/15 07:34:06;;;;;;;4.13;1.43;;;11.30;99.90;;;;;;4916585;29;20218;-77
2023/03/15 07:36:33;;;;;;;3.23;1.80;;;11.30;99.90;;;;;;4916719;29;20209;-71
2023/03/15 07:39:01;;;;;;;3.03;1.70;;;11.50;99.90;;;;;;4916868;29;20220;-71
2023/03/15 07:41:28;;;;;;;2.97;1.70;;;11.80;99.90;;;;;;4916492;29;20233;-72
2023/03/15 07:43:55;;;;;;;2.50;1.67;;;11.70;99.90;;;;;;4916286;29;20221;-71
2023/03/15 07:46:22;;;;;;;4.07;1.33;;;11.80;99.90;;;;;;4916217;29;20243;-71
2023/03/15 07:48:48;;;;;;;4.17;1.90;;;11.90;99.90;;;;;;4916293;29;20217;-71
2023/03/15 07:51:15;;;;;;;3.73;1.50;;;12.20;99.90;;;;;;4916588;29;20236;-73
2023/03/15 07:53:42;;;;;;;3.67;1.40;;;12.70;99.90;;;;;;4916417;29;20676;-72
2023/03/15 07:56:10;;;;;;;4.10;1.90;;;13.30;99.90;;;;;;4916596;29;20580;-72
2023/03/15 07:58:37;;;;;;;4.23;1.80;;;13.10;99.90;;;;;;4916340;29;20304;-76
2023/03/15 08:01:04;;;;;;;3.50;1.93;;;12.70;99.90;;;;;;4916039;29;20592;-71
2023/03/15 08:03:31;;;;;;;2.80;1.93;;;12.10;99.90;;;;;;4915958;29;20232;-72
2023/03/15 08:05:58;;;;;;;3.07;1.60;;;12.30;99.90;;;;;;4916776;29;20739;-72
2023/03/15 08:08:25;;;;;;;2.97;1.67;;;12.30;99.90;;;;;;4919950;29;20212;-72
2023/03/15 08:10:51;;;;;;;3.97;1.80;;;11.70;99.90;;;;;;4919804;29;20229;-72
2023/03/15 08:13:20;;;;;;;2.43;1.73;;;11.20;99.90;;;;;;4919754;29;20224;-73
2023/03/15 08:15:46;;;;;;;3.23;1.70;;;11.10;99.90;;;;;;4919549;29;20227;-73
2023/03/15 08:18:13;;;;;;;3.00;1.70;;;10.90;99.90;;;;;;4919674;29;20213;-72
2023/03/15 08:20:40;;;;;;;2.20;1.30;;;10.80;99.90;;;;;;4919520;29;20230;-73
2023/03/15 08:23:08;;;;;;;4.43;1.73;;;10.00;99.90;;;;;;4919630;29;20221;-72
2023/03/15 08:25:35;;;;;;;1.90;1.30;;;10.20;99.90;;;;;;4919234;29;20219;-73
2023/03/15 08:28:02;;;;;;;4.03;1.40;;;10.20;99.90;;;;;;4919433;29;20244;-72
2023/03/15 08:30:30;;;;;;;5.43;1.80;;;10.30;99.90;;;;;;4919290;29;20236;-72
2023/03/15 08:32:57;;;;;;;2.37;1.43;;;10.00;99.90;;;;;;4919711;29;20214;-71
2023/03/15 08:35:24;;;;;;;5.33;1.57;;;9.80;99.90;;;;;;4919365;29;20214;-72
2023/03/15 08:37:51;;;;;;;2.40;1.20;;;9.60;99.90;;;;;;4919088;29;20210;-72
2023/03/15 08:40:23;;;;;;;2.13;1.23;;;9.50;99.90;;;;;;4919029;29;20232;-71
2023/03/15 08:42:50;;;;;;;2.90;1.50;;;9.40;99.90;;;;;;4919237;29;20712;-72
2023/03/15 08:45:18;;;;;;;5.67;1.60;;;9.30;99.90;;;;;;4919192;29;20213;-71
2023/03/15 08:47:46;;;;;;;2.40;1.13;;;9.20;99.90;;;;;;4919435;29;20243;-73
2023/03/15 08:50:14;;;;;;;3.20;1.53;;;9.40;99.90;;;;;;4919380;29;20260;-72
2023/03/15 08:52:42;;;;;;;2.53;1.40;;;9.90;99.90;;;;;;4919188;29;20216;-72
2023/03/15 08:55:13;;;;;;;4.37;1.50;;;10.30;99.90;;;;;;4919134;29;20716;-72
2023/03/15 08:57:40;;;;;;;4.23;1.33;;;11.30;99.90;;;;;;4918922;29;20221;-72
2023/03/15 09:00:08;;;;;;;3.83;1.23;;;11.90;99.90;;;;;;4918939;29;20226;-72
2023/03/15 09:02:36;;;;;;;2.33;1.43;;;12.00;99.90;;;;;;4919233;29;20217;-71
2023/03/15 09:05:05;;;;;;;2.27;1.40;;;11.60;99.90;;;;;;4918937;29;20214;-71
2023/03/15 09:07:33;;;;;;;2.47;1.90;;;11.00;99.90;;;;;;4906593;29;20320;-71
2023/03/15 09:09:59;;;;;;;3.57;1.13;;;10.60;99.90;;;;;;4899291;29;20662;-71
2023/03/15 09:12:27;;;;;;;2.90;1.50;;;10.60;99.90;;;;;;4898662;29;20222;-69
2023/03/15 09:14:53;;;;;;;3.20;1.20;;;10.20;99.90;;;;;;4898052;29;20556;-70
2023/03/15 09:17:20;;;;;;;4.53;1.30;;;10.00;99.90;;;;;;4897764;29;20202;-73
2023/03/15 09:19:47;;;;;;;3.80;1.40;;;9.80;99.90;;;;;;4898603;29;20238;-70
2023/03/15 09:22:15;;;;;;;3.27;1.23;;;9.60;99.90;;;;;;4898492;29;20297;-71
2023/03/15 09:24:42;;;;;;;3.27;1.27;;;9.30;99.90;;;;;;4897830;29;20631;-71
2023/03/15 09:27:10;;;;;;;1.40;1.20;;;9.00;99.90;;;;;;4898213;29;20240;-72
2023/03/15 09:29:37;;;;;;;2.03;1.10;;;9.00;99.90;;;;;;4897616;29;20317;-70
2023/03/15 09:32:04;;;;;;;2.13;1.20;;;9.20;99.90;;;;;;4898548;29;20577;-70
2023/03/15 09:34:31;;;;;;;3.30;1.10;;;9.30;99.90;;;;;;4898722;29;20218;-71
2023/03/15 09:36:58;;;;;;;2.00;0.90;;;9.20;99.90;;;;;;4897061;29;20321;-71
2023/03/15 09:39:26;;;;;;;3.87;1.13;;;8.90;99.90;;;;;;4899122;29;20221;-71
2023/03/15 09:41:57;;;;;;;3.97;1.07;;;8.90;99.90;;;;;;4908053;29;20220;-76
2023/03/15 09:44:34;;;;;;;5.10;1.23;;;9.00;99.90;;;;;;4916524;29;20302;-74
2023/03/15 09:47:16;;;;;;;2.33;1.37;;;9.00;99.90;;;;;;4917399;29;20716;-74
2023/03/15 09:49:48;;;;;;;1.60;1.00;;;9.20;99.90;;;;;;4917913;29;20697;-80
2023/03/15 09:52:27;;;;;;;2.40;1.00;;;9.50;99.90;;;;;;4898965;29;20214;-73
2023/03/15 09:54:59;;;;;;;3.70;0.80;;;9.60;99.90;;;;;;4899166;29;20210;-79
2023/03/15 09:57:35;;;;;;;2.00;0.67;;;9.90;99.90;;;;;;4898882;29;20258;-81
2023/03/15 10:00:09;;;;;;;1.03;0.53;;;10.00;99.90;;;;;;4900376;29;20230;-81
2023/03/15 10:02:39;;;;;;;1.63;0.90;;;10.00;99.90;;;;;;4917617;29;20217;-79
2023/03/15 10:05:11;;;;;;;1.73;0.97;;;10.30;99.90;;;;;;4917473;29;20213;-72
2023/03/15 10:07:38;;;;;;;1.97;0.87;;;10.00;99.90;;;;;;4907631;29;20241;-73
2023/03/15 10:10:17;;;;;;;1.20;0.80;;;10.00;99.90;;;;;;4916128;29;20570;-72
2023/03/15 10:12:50;;;;;;;4.30;1.20;;;10.10;99.90;;;;;;4916460;29;20704;-73
2023/03/15 10:15:25;;;;;;;1.20;1.00;;;10.20;99.90;;;;;;4916421;29;20287;-76
2023/03/15 10:18:10;;;;;;;1.60;0.80;;;10.30;99.90;;;;;;4917346;29;20216;-73
2023/03/15 10:20:42;;;;;;;2.17;0.70;;;10.40;99.90;;;;;;4917335;29;20226;-80
2023/03/15 10:23:15;;;;;;;1.23;0.77;;;10.50;99.90;;;;;;4917489;29;20210;-75
2023/03/15 10:25:45;;;;;;;0.80;0.70;;;10.40;99.90;;;;;;4917808;29;20216;-76
2023/03/15 10:28:15;;;;;;;2.33;1.00;;;10.40;99.90;;;;;;4917379;29;20245;-78
2023/03/15 10:30:47;;;;;;;2.20;1.00;;;10.10;99.90;;;;;;4916888;29;20229;-73
2023/03/15 10:33:19;;;;;;;1.93;1.17;;;10.00;99.90;;;;;;4916832;29;20216;-74
2023/03/15 10:35:46;;;;;;;4.17;1.47;;;9.80;99.90;;;;;;4917234;29;20214;-74
2023/03/15 10:38:16;;;;;;;1.63;0.80;;;9.40;99.90;;;;;;4916993;29;20217;-77
2023/03/15 10:40:48;;;;;;;2.10;1.17;;;9.10;99.90;;;;;;4917124;29;20235;-72
2023/03/15 10:43:19;;;;;;;4.20;0.90;;;8.80;99.90;;;;;;4917067;29;20213;-79
2023/03/15 10:45:59;;;;;;;4.53;1.30;;;8.70;99.90;;;;;;4916984;29;20213;-77
2023/03/15 10:48:26;;;;;;;2.20;1.20;;;8.60;99.90;;;;;;4917284;29;20292;-74
2023/03/15 10:50:54;;;;;;;2.93;1.17;;;8.50;99.90;;;;;;4916838;29;20230;-73
2023/03/15 10:53:24;;;;;;;1.70;1.30;;;8.60;99.90;;;;;;4916522;29;20224;-73
2023/03/15 10:55:59;;;;;;;2.07;1.37;;;8.50;99.90;;;;;;4916628;29;20209;-72
2023/03/15 10:58:30;;;;;;;2.83;1.10;;;8.60;99.90;;;;;;4917035;29;20236;-72
2023/03/15 11:01:06;;;;;;;1.90;1.20;;;8.90;99.90;;;;;;4916929;29;20229;-75
2023/03/15 11:03:33;;;;;;;2.53;1.67;;;9.10;99.90;;;;;;4918447;29;20226;-74
2023/03/15 11:06:01;;;;;;;1.90;1.20;;;8.90;99.90;;;;;;4922159;29;20220;-75
2023/03/15 11:08:37;;;;;;;1.10;0.93;;;9.10;99.90;;;;;;4922315;29;20248;-74
2023/03/15 11:11:05;;;;;;;1.93;1.20;;;9.10;99.90;;;;;;4918959;29;20233;-74
2023/03/15 11:13:33;;;;;;;2.97;1.40;;;9.10;99.90;;;;;;4917000;29;20273;-73
2023/03/15 11:16:03;;;;;;;2.10;1.23;;;9.10;99.90;;;;;;4916575;29;20210;-74
2023/03/15 11:18:34;;;;;;;1.30;0.97;;;9.30;99.90;;;;;;4917200;29;20224;-73
2023/03/15 11:21:04;;;;;;;1.77;1.10;;;9.30;99.90;;;;;;4916673;29;20280;-74
2023/03/15 11:23:35;;;;;;;1.90;1.00;;;9.50;99.90;;;;;;4917170;29;20664;-73
2023/03/15 11:26:02;;;;;;;1.67;1.10;;;9.70;99.90;;;;;;4916895;29;20316;-74
2023/03/15 11:28:32;;;;;;;2.07;1.00;;;9.70;99.90;;;;;;4916662;29;20332;-74
2023/03/15 11:31:00;;;;;;;2.23;1.00;;;9.80;99.90;;;;;;4916454;29;20233;-73
2023/03/15 11:33:38;;;;;;;1.90;1.00;;;9.80;99.90;;;;;;4916665;29;20265;-73
2023/03/15 11:36:11;;;;;;;1.17;0.87;;;9.60;99.90;;;;;;4916865;29;20571;-74
2023/03/15 11:38:42;;;;;;;2.97;1.00;;;9.30;99.90;;;;;;4916812;29;20209;-72
2023/03/15 11:41:15;;;;;;;1.60;0.80;;;9.10;99.90;;;;;;4920300;29;20763;-74
2023/03/15 11:43:50;;;;;;;2.50;0.90;;;9.10;99.90;;;;;;4922662;29;20252;-75
2023/03/15 11:46:25;;;;;;;3.00;0.93;;;9.20;99.90;;;;;;4923076;29;20208;-73
2023/03/15 11:48:59;;;;;;;0.63;0.63;;;9.00;99.90;;;;;;4922895;29;20292;-74
2023/03/15 11:51:26;;;;;;;3.73;0.80;;;9.20;99.90;;;;;;4921375;29;20239;-76
2023/03/15 11:54:04;;;;;;;1.10;0.90;;;9.60;99.90;;;;;;4924287;29;20212;-75
2023/03/15 11:56:52;;;;;;;1.60;1.00;;;10.00;99.90;;;;;;4924922;29;20272;-75
2023/03/15 11:59:28;;;;;;;1.83;0.87;;;10.00;99.90;;;;;;4925083;29;20251;-75
2023/03/15 12:01:58;;;;;;;1.00;0.70;;;10.00;99.90;;;;;;4925615;29;20245;-74
2023/03/15 12:04:39;;;;;;;1.47;0.47;;;10.00;99.90;;;;;;4920047;29;20665;-74
2023/03/15 12:07:24;;;;;;;1.43;0.60;;;10.10;99.90;;;;;;4919829;29;20251;-74
2023/03/15 12:09:54;;;;;;;1.67;0.60;;;10.10;99.90;;;;;;4919890;29;20709;-75
2023/03/15 12:12:46;;;;;;;1.90;0.57;;;10.20;99.90;;;;;;4920329;29;20232;-74
2023/03/15 12:15:48;;;;;;;1.13;0.70;;;10.30;99.90;;;;;;4919875;29;20247;-74
2023/03/15 12:18:33;;;;;;;1.00;0.60;;;10.40;99.90;;;;;;4919850;29;20291;-75
2023/03/15 12:21:12;;;;;;;2.00;0.90;;;10.40;99.90;;;;;;4917610;29;20225;-75
2023/03/15 12:23:43;;;;;;;1.30;0.80;;;10.60;99.90;;;;;;4919749;29;20220;-74
2023/03/15 12:26:30;;;;;;;2.57;0.77;;;10.60;99.90;;;;;;4919784;29;20214;-74
2023/03/15 12:29:18;;;;;;;4.83;0.97;;;10.60;99.90;;;;;;4919690;29;20268;-74
2023/03/15 12:32:07;;;;;;;2.50;0.60;;;10.50;99.90;;;;;;4919871;29;20212;-75
2023/03/15 12:34:45;;;;;;;2.37;0.60;;;10.40;99.90;;;;;;4919934;29;20292;-73
2023/03/15 12:37:16;;;;;;;2.30;0.60;;;10.50;99.90;;;;;;4919305;29;20687;-74
2023/03/15 12:39:46;;;;;;;1.30;0.80;;;10.60;99.90;;;;;;4919343;29;20221;-80
2023/03/15 12:42:34;;;;;;;0.77;0.60;;;10.70;99.90;;;;;;4920216;29;20210;-75
2023/03/15 12:45:36;;;;;;;2.13;0.63;;;10.70;99.90;;;;;;4919325;29;20232;-74
2023/03/15 12:48:24;;;;;;;6.13;0.70;;;10.50;99.90;;;;;;4919543;29;20323;-74
2023/03/15 12:51:03;;;;;;;3.23;0.83;;;10.60;99.90;;;;;;4919155;29;20229;-74
2023/03/15 12:53:44;;;;;;;3.67;0.70;;;10.70;99.90;;;;;;4918134;29;20601;-75
2023/03/15 12:56:40;;;;;;;1.90;0.53;;;10.60;99.90;;;;;;4919227;29;20216;-77
2023/03/15 12:59:16;;;;;;;0.60;0.40;;;10.60;99.90;;;;;;4912688;29;20222;-74
2023/03/15 13:01:43;;;;;;;1.30;0.40;;;10.60;99.90;;;;;;4919096;29;20672;-75
2023/03/15 13:04:13;;;;;;;2.37;0.57;;;10.70;99.90;;;;;;4918784;29;20665;-75
2023/03/15 13:06:52;;;;;;;1.43;0.60;;;10.80;99.90;;;;;;4918530;29;20209;-74